Time;durP1;ratioP1;P1;durP2;ratioP2;P2;SDS_P1;SDS_P2;PMS_P1;PMS_P2;Temp;Humidity;BMP_temperature;BMP_pressure;BME280_temperature;BME280_humidity;BME280_pressure;Samples;Min_cycle;Max_cycle;Signal;HPM_P1;HPM_P2
2021/08/27 00:00:15;;;;;;;2.72;2.52;;;;;;;16.44;100.00;99205.29;1689402;83;21087;-68
2021/08/27 00:02:41;;;;;;;2.10;2.00;;;;;;;16.42;100.00;99198.54;1688739;83;21033;-69
2021/08/27 00:05:09;;;;;;;2.98;2.65;;;;;;;16.40;100.00;99209.69;1667502;85;21053;-68
2021/08/27 00:07:35;;;;;;;2.10;2.00;;;;;;;16.37;100.00;99213.56;1660544;86;20922;-69
2021/08/27 00:10:04;;;;;;;2.58;2.37;;;;;;;16.33;100.00;99213.36;1692355;83;20996;-68
2021/08/27 00:12:31;;;;;;;2.22;2.05;;;;;;;16.30;100.00;99209.90;1689156;83;20953;-68
2021/08/27 00:14:59;;;;;;;1.60;1.50;;;;;;;16.27;100.00;99215.91;1669984;85;21026;-71
2021/08/27 00:17:30;;;;;;;6.03;2.83;;;;;;;16.29;100.00;99205.57;1689740;84;20993;-72
2021/08/27 00:19:58;;;;;;;3.98;3.05;;;;;;;16.29;100.00;99210.19;1689223;85;20917;-72
2021/08/27 00:22:27;;;;;;;4.03;3.55;;;;;;;16.31;100.00;99214.20;1690376;83;21091;-70
2021/08/27 00:24:55;;;;;;;6.42;4.35;;;;;;;16.30;100.00;99217.23;1690116;83;21549;-72
2021/08/27 00:27:22;;;;;;;7.67;4.62;;;;;;;16.23;100.00;99201.33;1674933;84;20959;-75
2021/08/27 00:29:49;;;;;;;4.78;3.60;;;;;;;16.18;100.00;99198.70;1690282;84;21079;-73
2021/08/27 00:32:16;;;;;;;6.25;3.62;;;;;;;16.17;100.00;99205.23;1690035;84;20976;-74
2021/08/27 00:34:42;;;;;;;3.65;2.77;;;;;;;16.19;100.00;99204.94;1689899;84;21337;-65
2021/08/27 00:37:08;;;;;;;2.12;1.92;;;;;;;16.19;100.00;99203.58;1690280;84;20921;-68
2021/08/27 00:39:35;;;;;;;5.55;2.52;;;;;;;16.18;100.00;99212.27;1689930;83;21087;-66
2021/08/27 00:42:01;;;;;;;6.58;3.22;;;;;;;16.21;100.00;99212.24;1690194;84;21898;-67
2021/08/27 00:44:28;;;;;;;4.35;3.45;;;;;;;16.18;100.00;99208.75;1690040;84;20976;-67
2021/08/27 00:46:55;;;;;;;3.27;2.98;;;;;;;16.19;100.00;99209.01;1690485;84;21017;-72
2021/08/27 00:49:22;;;;;;;2.33;2.12;;;;;;;16.18;100.00;99208.75;1639150;86;21054;-68
2021/08/27 00:51:49;;;;;;;5.17;2.60;;;;;;;16.20;100.00;99216.86;1662111;86;21092;-71
2021/08/27 00:54:16;;;;;;;3.65;2.37;;;;;;;16.22;100.00;99212.47;1688055;84;21053;-71
2021/08/27 00:56:42;;;;;;;3.42;2.20;;;;;;;16.27;100.00;99217.81;1665308;85;21704;-69
2021/08/27 00:59:09;;;;;;;2.72;2.20;;;;;;;16.30;100.00;99218.04;1689211;85;21012;-70
2021/08/27 01:01:36;;;;;;;2.35;2.25;;;;;;;16.31;100.00;99223.70;1698779;83;21062;-71
2021/08/27 01:04:03;;;;;;;4.22;2.80;;;;;;;16.33;100.00;99222.86;1703848;82;20993;-70
2021/08/27 01:06:40;;;;;;;2.67;2.47;;;;;;;16.35;100.00;99228.00;1698981;84;21054;-70
2021/08/27 01:09:18;;;;;;;2.12;2.02;;;;;;;16.35;100.00;99228.80;1689080;85;21051;-72
2021/08/27 01:11:51;;;;;;;3.30;2.77;;;;;;;16.36;100.00;99230.94;1689975;85;20993;-71
2021/08/27 01:14:39;;;;;;;4.65;2.58;;;;;;;16.40;100.00;99231.98;1690377;85;21040;-68
2021/08/27 01:17:16;;;;;;;2.45;1.85;;;;;;;16.46;100.00;99237.00;1689977;84;21099;-67
2021/08/27 01:20:22;;;;;;;2.90;2.60;;;;;;;16.50;100.00;99235.84;1688434;84;21130;-71
2021/08/27 01:23:32;;;;;;;2.40;2.20;;;;;;;16.49;100.00;99236.97;1689558;85;21053;-73
2021/08/27 01:25:58;;;;;;;2.37;2.22;;;;;;;16.45;100.00;99238.09;1690282;85;20984;-74
2021/08/27 01:28:26;;;;;;;2.83;2.60;;;;;;;16.41;100.00;99230.85;1664690;85;20963;-73
2021/08/27 01:31:32;;;;;;;2.52;2.33;;;;;;;16.40;100.00;99230.04;1676023;84;21075;-72
2021/08/27 01:34:33;;;;;;;3.12;2.60;;;;;;;16.40;100.00;99227.91;1689647;84;21055;-73
2021/08/27 01:36:59;;;;;;;2.30;2.10;;;;;;;16.36;100.00;99217.37;1690601;84;21259;-75
2021/08/27 01:39:29;;;;;;;2.77;2.58;;;;;;;16.36;100.00;99224.16;1690097;83;21008;-76
2021/08/27 01:41:56;;;;;;;2.62;2.42;;;;;;;16.34;100.00;99223.12;1666373;84;21008;-77
2021/08/27 01:44:25;;;;;;;2.47;2.27;;;;;;;16.36;100.00;99226.32;1666136;85;21082;-77
2021/08/27 01:46:56;;;;;;;2.98;2.77;;;;;;;16.38;100.00;99224.67;1654760;85;39195;-78
2021/08/27 01:49:22;;;;;;;1.90;1.80;;;;;;;16.40;100.00;99225.20;1685282;85;20977;-76
2021/08/27 01:51:48;;;;;;;2.08;1.98;;;;;;;16.46;100.00;99218.55;1688577;85;21205;-76
2021/08/27 01:54:15;;;;;;;2.22;2.12;;;;;;;16.50;100.00;99213.57;1688475;83;21001;-76
2021/08/27 01:56:41;;;;;;;9.78;4.05;;;;;;;16.52;100.00;99215.45;1689225;85;21009;-76
2021/08/27 01:59:07;;;;;;;2.90;2.42;;;;;;;16.53;100.00;99217.06;1690873;84;21057;-76
2021/08/27 02:01:35;;;;;;;1.95;1.77;;;;;;;16.51;100.00;99212.47;1690458;84;20960;-75
2021/08/27 02:04:05;;;;;;;2.02;1.75;;;;;;;16.50;100.00;99214.13;1690303;83;20992;-74
2021/08/27 02:06:32;;;;;;;1.98;1.85;;;;;;;16.46;100.00;99217.19;1690601;84;21020;-75
2021/08/27 02:09:00;;;;;;;2.62;2.10;;;;;;;16.43;100.00;99222.68;1689448;84;21517;-75
2021/08/27 02:11:27;;;;;;;2.45;2.20;;;;;;;16.43;100.00;99217.80;1688850;84;21018;-77
2021/08/27 02:13:54;;;;;;;2.27;1.98;;;;;;;16.42;100.00;99212.11;1641638;86;21023;-74
2021/08/27 02:16:20;;;;;;;1.70;1.60;;;;;;;16.44;100.00;99214.80;1651246;84;21012;-75
2021/08/27 02:18:47;;;;;;;2.35;2.15;;;;;;;16.45;100.00;99214.25;1689649;84;21538;-74
2021/08/27 02:21:14;;;;;;;3.90;2.92;;;;;;;16.47;100.00;99216.90;1691850;84;21002;-75
2021/08/27 02:23:41;;;;;;;4.83;3.10;;;;;;;16.51;100.00;99218.45;1702815;84;21033;-74
2021/08/27 02:26:07;;;;;;;5.10;2.58;;;;;;;16.53;100.00;99215.70;1676553;84;23703;-75
2021/08/27 02:28:35;;;;;;;4.40;2.47;;;;;;;16.52;100.00;99218.16;1689730;84;21017;-75
2021/08/27 02:31:02;;;;;;;2.50;2.30;;;;;;;16.54;100.00;99217.87;1689083;85;21013;-75
2021/08/27 02:33:28;;;;;;;3.15;2.85;;;;;;;16.56;100.00;99225.14;1690966;83;21033;-75
2021/08/27 02:35:55;;;;;;;3.08;2.77;;;;;;;16.59;100.00;99221.88;1689133;84;21129;-75
2021/08/27 02:38:24;;;;;;;3.40;3.10;;;;;;;16.62;100.00;99221.81;1669694;84;21051;-75
2021/08/27 02:40:50;;;;;;;2.92;2.72;;;;;;;16.63;100.00;99230.22;1678525;84;21012;-75
2021/08/27 02:43:17;;;;;;;3.02;2.75;;;;;;;16.63;100.00;99232.39;1675688;84;21021;-75
2021/08/27 02:45:43;;;;;;;3.40;3.10;;;;;;;16.62;100.00;99234.84;1690496;83;21043;-75
2021/08/27 02:48:09;;;;;;;4.80;3.62;;;;;;;16.59;100.00;99238.72;1689624;84;21223;-75
2021/08/27 02:50:40;;;;;;;3.00;2.80;;;;;;;16.57;100.00;99238.43;1688931;84;20988;-74
2021/08/27 02:53:21;;;;;;;4.05;2.52;;;;;;;16.58;100.00;99241.98;1688973;83;21574;-74
2021/08/27 02:55:55;;;;;;;3.72;3.42;;;;;;;16.63;100.00;99249.23;1688646;85;21005;-74
2021/08/27 02:58:23;;;;;;;3.65;2.92;;;;;;;16.66;100.00;99251.33;1689063;85;21041;-75
2021/08/27 03:01:11;;;;;;;3.35;3.08;;;;;;;16.72;100.00;99251.50;1690870;84;22188;-74
2021/08/27 03:03:39;;;;;;;4.17;3.75;;;;;;;16.73;100.00;99259.91;1690088;84;20953;-74
2021/08/27 03:06:17;;;;;;;3.90;3.52;;;;;;;16.78;100.00;99255.73;1665627;85;21065;-75
2021/08/27 03:08:50;;;;;;;3.87;3.58;;;;;;;16.77;100.00;99261.72;1689175;85;20929;-74
2021/08/27 03:11:24;;;;;;;2.90;2.70;;;;;;;16.75;100.00;99269.34;1666503;84;21089;-76
2021/08/27 03:14:02;;;;;;;2.85;2.65;;;;;;;16.73;100.00;99270.77;1696845;83;21150;-73
2021/08/27 03:16:30;;;;;;;2.50;2.30;;;;;;;16.72;100.00;99274.58;1716821;83;21059;-73
2021/08/27 03:19:07;;;;;;;3.58;3.25;;;;;;;16.67;100.00;99278.74;1675817;85;20996;-72
2021/08/27 03:21:41;;;;;;;2.58;2.37;;;;;;;16.60;100.00;99279.13;1689034;84;21049;-72
2021/08/27 03:24:30;;;;;;;3.25;2.95;;;;;;;16.56;100.00;99286.23;1675038;84;20982;-71
2021/08/27 03:27:03;;;;;;;3.02;2.83;;;;;;;16.51;100.00;99279.53;1629918;87;21054;-71
2021/08/27 03:29:34;;;;;;;4.62;2.95;;;;;;;16.50;100.00;99280.08;1672844;83;21034;-72
2021/08/27 03:32:00;;;;;;;3.27;3.02;;;;;;;16.51;100.00;99280.89;1690145;83;21053;-71
2021/08/27 03:34:26;;;;;;;3.70;3.40;;;;;;;16.52;100.00;99290.66;1690830;84;21061;-71
2021/08/27 03:36:57;;;;;;;3.40;3.10;;;;;;;16.51;100.00;99297.98;1689233;84;21108;-70
2021/08/27 03:39:23;;;;;;;4.47;4.08;;;;;;;16.50;100.00;99303.70;1690042;85;21122;-70
2021/08/27 03:41:51;;;;;;;4.12;3.80;;;;;;;16.45;100.00;99293.74;1690131;83;21028;-70
2021/08/27 03:44:17;;;;;;;4.83;3.80;;;;;;;16.40;100.00;99301.97;1676273;84;21015;-70
2021/08/27 03:46:44;;;;;;;3.40;3.10;;;;;;;16.33;100.00;99295.33;1681676;83;21068;-70
2021/08/27 03:49:12;;;;;;;3.85;3.40;;;;;;;16.28;100.00;99298.94;1703422;83;21017;-71
2021/08/27 03:51:39;;;;;;;6.12;5.12;;;;;;;16.22;100.00;99301.47;1674432;84;22133;-68
2021/08/27 03:54:05;;;;;;;4.00;3.70;;;;;;;16.14;100.00;99302.95;1697752;83;20970;-70
2021/08/27 03:56:33;;;;;;;3.67;3.37;;;;;;;16.14;100.00;99302.16;1690213;83;21074;-69
2021/08/27 03:59:00;;;;;;;7.58;6.83;;;;;;;16.13;100.00;99312.74;1662429;85;21139;-71
2021/08/27 04:01:26;;;;;;;3.80;3.47;;;;;;;16.08;100.00;99314.17;1695549;84;21021;-70
2021/08/27 04:03:53;;;;;;;3.70;3.40;;;;;;;16.02;100.00;99318.86;1689186;84;21010;-70
2021/08/27 04:06:19;;;;;;;3.92;3.62;;;;;;;15.96;100.00;99319.26;1691517;82;21561;-70
2021/08/27 04:08:45;;;;;;;3.70;3.02;;;;;;;15.94;100.00;99317.38;1691064;84;21716;-69
2021/08/27 04:11:14;;;;;;;3.92;3.55;;;;;;;15.95;100.00;99318.45;1702942;84;20982;-70
2021/08/27 04:13:41;;;;;;;4.00;3.62;;;;;;;15.96;100.00;99315.19;1695458;82;21025;-75
2021/08/27 04:16:08;;;;;;;3.98;3.60;;;;;;;15.97;100.00;99312.73;1692902;84;21267;-71
2021/08/27 04:18:34;;;;;;;3.08;2.87;;;;;;;15.97;100.00;99317.58;1665320;85;21094;-70
2021/08/27 04:21:01;;;;;;;7.50;2.90;;;;;;;15.94;100.00;99318.73;1687991;85;21189;-70
2021/08/27 04:23:27;;;;;;;5.35;3.72;;;;;;;15.88;100.00;99311.22;1688685;85;21526;-70
2021/08/27 04:25:54;;;;;;;3.33;3.08;;;;;;;15.83;100.00;99307.77;1689427;85;21512;-71
2021/08/27 04:28:20;;;;;;;6.17;4.47;;;;;;;15.77;100.00;99302.98;1689809;84;21746;-70
2021/08/27 04:30:48;;;;;;;4.67;4.30;;;;;;;15.73;100.00;99302.52;1690120;84;21517;-70
2021/08/27 04:33:15;;;;;;;3.42;3.05;;;;;;;15.69;100.00;99307.70;1690040;84;21054;-71
2021/08/27 04:35:41;;;;;;;3.90;3.50;;;;;;;15.68;100.00;99310.17;1689164;85;21014;-71
2021/08/27 04:38:07;;;;;;;7.50;5.28;;;;;;;15.67;100.00;99309.36;1690025;85;21084;-70
2021/08/27 04:40:33;;;;;;;3.95;3.60;;;;;;;15.67;100.00;99303.12;1690115;85;21096;-71
2021/08/27 04:43:00;;;;;;;3.72;3.42;;;;;;;15.62;100.00;99308.08;1689800;85;21556;-70
2021/08/27 04:45:26;;;;;;;6.10;3.72;;;;;;;15.60;100.00;99304.84;1689207;85;21502;-72
2021/08/27 04:47:52;;;;;;;3.60;3.30;;;;;;;15.60;100.00;99306.19;1688921;85;21029;-71
2021/08/27 04:50:19;;;;;;;5.37;4.35;;;;;;;15.63;100.00;99312.95;1689267;85;21560;-70
2021/08/27 04:52:45;;;;;;;4.42;4.03;;;;;;;15.63;100.00;99319.73;1675784;85;21141;-70
2021/08/27 04:55:11;;;;;;;3.90;3.60;;;;;;;15.62;100.00;99316.20;1670880;85;21545;-70
2021/08/27 04:57:40;;;;;;;4.05;3.75;;;;;;;15.66;100.00;99317.78;1690390;85;21067;-71
2021/08/27 05:00:09;;;;;;;3.72;3.40;;;;;;;15.68;100.00;99321.80;1690405;85;20961;-71
2021/08/27 05:02:37;;;;;;;3.85;3.45;;;;;;;15.73;100.00;99321.49;1690709;84;21011;-71
2021/08/27 05:05:03;;;;;;;4.10;3.62;;;;;;;15.75;100.00;99316.02;1676186;84;21287;-70
2021/08/27 05:07:30;;;;;;;3.47;3.17;;;;;;;15.73;100.00;99324.98;1690511;84;21007;-70
2021/08/27 05:09:56;;;;;;;3.75;3.45;;;;;;;15.70;100.00;99317.45;1676050;84;20952;-71
2021/08/27 05:12:22;;;;;;;2.72;2.52;;;;;;;15.70;100.00;99310.67;1690347;84;21615;-70
2021/08/27 05:14:48;;;;;;;3.77;3.47;;;;;;;15.73;100.00;99312.78;1675840;85;21050;-69
2021/08/27 05:17:15;;;;;;;4.00;3.58;;;;;;;15.70;100.00;99325.58;1690189;84;21140;-70
2021/08/27 05:19:44;;;;;;;4.40;4.00;;;;;;;15.67;100.00;99320.75;1689948;85;21032;-70
2021/08/27 05:22:10;;;;;;;4.33;3.55;;;;;;;15.66;100.00;99324.01;1690021;85;21561;-70
2021/08/27 05:24:38;;;;;;;3.62;3.27;;;;;;;15.67;100.00;99327.53;1689945;85;21443;-70
2021/08/27 05:27:04;;;;;;;4.28;3.67;;;;;;;15.68;100.00;99327.80;1689964;85;21083;-69
2021/08/27 05:29:31;;;;;;;3.47;3.20;;;;;;;15.68;100.00;99329.15;1690215;84;21178;-69
2021/08/27 05:31:57;;;;;;;4.42;3.50;;;;;;;15.64;100.00;99330.26;1689781;83;21102;-72
2021/08/27 05:34:23;;;;;;;3.35;3.05;;;;;;;15.64;100.00;99328.91;1688441;85;21025;-71
2021/08/27 05:36:50;;;;;;;3.90;3.33;;;;;;;15.65;100.00;99337.30;1692770;84;21578;-69
2021/08/27 05:39:17;;;;;;;4.08;3.62;;;;;;;15.65;100.00;99332.42;1689829;84;21085;-70
2021/08/27 05:41:43;;;;;;;3.70;3.40;;;;;;;15.62;100.00;99341.96;1666051;85;21060;-69
2021/08/27 05:44:10;;;;;;;3.27;2.98;;;;;;;15.62;100.00;99331.66;1689973;83;20987;-69
2021/08/27 05:46:36;;;;;;;3.80;2.80;;;;;;;15.64;100.00;99328.09;1689963;83;21051;-69
2021/08/27 05:49:03;;;;;;;6.33;3.80;;;;;;;15.69;100.00;99330.73;1690090;85;21023;-71
2021/08/27 05:51:31;;;;;;;5.30;2.77;;;;;;;15.73;100.00;99335.83;1689915;83;21050;-70
2021/08/27 05:53:58;;;;;;;3.83;3.35;;;;;;;15.78;100.00;99342.55;1690310;83;21128;-68
2021/08/27 05:56:24;;;;;;;2.90;2.65;;;;;;;15.82;100.00;99330.59;1689873;83;20944;-71
2021/08/27 05:58:51;;;;;;;4.00;3.00;;;;;;;15.90;100.00;99329.91;1675231;84;21005;-68
2021/08/27 06:01:17;;;;;;;3.50;3.20;;;;;;;15.96;100.00;99329.56;1662579;85;21012;-70
2021/08/27 06:03:44;;;;;;;3.40;3.02;;;;;;;16.04;100.00;99334.86;1650813;85;21043;-71
2021/08/27 06:06:10;;;;;;;3.25;2.95;;;;;;;16.09;100.00;99333.42;1662650;85;21128;-69
2021/08/27 06:08:36;;;;;;;3.75;2.40;;;;;;;16.09;100.00;99341.02;1650933;85;20944;-69
2021/08/27 06:11:03;;;;;;;3.15;2.52;;;;;;;16.12;100.00;99336.35;1650749;85;20955;-71
2021/08/27 06:13:29;;;;;;;4.90;2.60;;;;;;;16.19;100.00;99338.70;1650800;84;21024;-68
2021/08/27 06:15:56;;;;;;;2.52;2.33;;;;;;;16.25;100.00;99338.89;1650644;84;21584;-72
2021/08/27 06:18:23;;;;;;;3.40;2.90;;;;;;;16.30;100.00;99335.28;1678290;84;21809;-69
2021/08/27 06:20:50;;;;;;;3.30;2.52;;;;;;;16.34;100.00;99343.08;1678360;84;21011;-69
2021/08/27 06:23:18;;;;;;;2.65;2.45;;;;;;;16.36;100.00;99328.65;1690410;84;20976;-70
2021/08/27 06:25:45;;;;;;;2.00;1.90;;;;;;;16.41;100.00;99337.52;1673546;84;21016;-69
2021/08/27 06:28:12;;;;;;;4.10;2.60;;;;;;;16.49;100.00;99341.48;1682344;84;21571;-69
2021/08/27 06:30:39;;;;;;;2.58;2.37;;;;;;;16.54;100.00;99346.28;1690519;83;21053;-69
2021/08/27 06:33:06;;;;;;;2.60;2.17;;;;;;;16.61;100.00;99348.62;1690409;84;20999;-69
2021/08/27 06:35:32;;;;;;;2.47;2.00;;;;;;;16.67;100.00;99350.16;1665876;84;21036;-71
2021/08/27 06:40:45;;;;;;;3.42;1.87;;;;;;;16.75;99.19;99354.89;1662627;85;21075;-71
2021/08/27 06:43:11;;;;;;;2.05;1.85;;;;;;;16.80;98.75;99348.02;1662552;85;21265;-70
2021/08/27 06:45:38;;;;;;;2.52;2.33;;;;;;;16.87;98.04;99350.36;1673807;85;20944;-70
2021/08/27 06:48:05;;;;;;;3.62;2.35;;;;;;;16.88;97.12;99343.83;1662998;85;21011;-71
2021/08/27 06:50:31;;;;;;;3.10;1.90;;;;;;;16.87;96.40;99343.56;1674400;84;21041;-74
2021/08/27 06:52:58;;;;;;;2.70;2.17;;;;;;;16.89;96.67;99345.41;1674461;84;21127;-68
2021/08/27 06:55:24;;;;;;;4.62;2.17;;;;;;;16.93;96.08;99348.59;1674345;84;21963;-69
2021/08/27 06:57:50;;;;;;;3.87;2.22;;;;;;;16.97;95.51;99348.81;1674420;83;21015;-70
2021/08/27 07:00:17;;;;;;;2.35;2.17;;;;;;;17.04;94.90;99353.28;1658706;85;21010;-70
2021/08/27 07:02:43;;;;;;;2.42;2.15;;;;;;;17.08;94.35;99350.22;1660261;85;21034;-68
2021/08/27 07:05:10;;;;;;;2.12;2.00;;;;;;;17.16;94.51;99344.09;1673813;85;21058;-68
2021/08/27 07:07:37;;;;;;;2.27;2.08;;;;;;;17.23;93.84;99344.48;1659951;85;21945;-68
2021/08/27 07:10:06;;;;;;;3.12;2.65;;;;;;;17.32;93.37;99351.38;1672662;85;21049;-71
2021/08/27 07:12:33;;;;;;;2.10;1.90;;;;;;;17.33;92.59;99353.80;1673935;84;21022;-69
2021/08/27 07:15:01;;;;;;;2.35;1.82;;;;;;;17.39;92.14;99352.61;1673832;85;21547;-68
2021/08/27 07:17:29;;;;;;;2.30;2.10;;;;;;;17.40;89.95;99352.86;1673200;85;21493;-68
2021/08/27 07:19:56;;;;;;;2.22;2.02;;;;;;;17.43;90.58;99356.88;1682277;85;21024;-71
2021/08/27 07:22:22;;;;;;;2.45;2.02;;;;;;;17.51;91.02;99362.95;1658837;85;21608;-69
2021/08/27 07:24:48;;;;;;;1.90;1.60;;;;;;;17.54;90.48;99366.45;1672164;85;21017;-69
2021/08/27 07:27:15;;;;;;;1.50;1.40;;;;;;;17.58;89.56;99378.32;1672358;85;21007;-68
2021/08/27 07:29:43;;;;;;;3.33;1.70;;;;;;;17.62;88.41;99371.75;1673122;85;21028;-69
2021/08/27 07:32:12;;;;;;;3.95;1.95;;;;;;;17.68;88.31;99371.89;1672228;85;21335;-69
2021/08/27 07:34:40;;;;;;;1.72;1.62;;;;;;;17.74;88.29;99369.33;1658483;85;21005;-69
2021/08/27 07:37:08;;;;;;;1.80;1.70;;;;;;;17.82;88.32;99372.68;1673025;85;21017;-69
2021/08/27 07:39:35;;;;;;;2.95;1.92;;;;;;;17.88;88.20;99371.47;1672716;85;21014;-69
2021/08/27 07:42:02;;;;;;;2.00;1.90;;;;;;;17.93;87.63;99379.52;1658562;85;21553;-67
2021/08/27 07:44:28;;;;;;;3.42;1.40;;;;;;;17.97;87.51;99379.16;1672346;85;21173;-69
2021/08/27 07:46:55;;;;;;;2.25;1.67;;;;;;;18.03;87.04;99390.19;1658542;85;21074;-68
2021/08/27 07:49:22;;;;;;;1.67;1.57;;;;;;;18.06;85.50;99379.23;1672306;84;21112;-67
2021/08/27 07:51:51;;;;;;;2.85;1.67;;;;;;;18.13;84.98;99381.77;1673141;85;20995;-68
2021/08/27 07:54:17;;;;;;;2.60;1.82;;;;;;;18.16;84.47;99386.61;1674095;85;21003;-69
2021/08/27 07:56:44;;;;;;;2.00;1.80;;;;;;;18.19;83.98;99391.98;1663680;85;21167;-70
2021/08/27 07:59:10;;;;;;;1.87;1.70;;;;;;;18.20;84.02;99392.24;1689955;84;21027;-69
2021/08/27 08:01:36;;;;;;;1.80;1.70;;;;;;;18.24;84.16;99391.87;1690253;85;21107;-69
2021/08/27 08:04:03;;;;;;;1.60;1.50;;;;;;;18.27;83.70;99401.58;1674008;85;21100;-69
2021/08/27 08:06:35;;;;;;;2.70;2.12;;;;;;;18.35;83.42;99404.70;1690107;84;21279;-70
2021/08/27 08:08:59;;;;;;;2.05;1.87;;;;;;;18.42;83.11;99406.42;1689575;84;21083;-71
2021/08/27 08:11:25;;;;;;;2.00;1.90;;;;;;;18.51;82.98;99411.41;1676057;85;20987;-68
2021/08/27 08:13:52;;;;;;;4.85;2.83;;;;;;;18.59;82.24;99407.42;1690004;83;20972;-70
2021/08/27 08:16:18;;;;;;;2.33;2.00;;;;;;;18.67;81.40;99414.84;1689918;83;21012;-69
2021/08/27 08:18:45;;;;;;;2.47;2.27;;;;;;;18.71;80.84;99409.01;1690168;83;21469;-69
2021/08/27 08:21:12;;;;;;;2.20;2.00;;;;;;;18.76;80.83;99403.98;1690026;83;21161;-71
2021/08/27 08:23:39;;;;;;;2.83;2.20;;;;;;;18.84;80.61;99400.54;1687249;85;21005;-70
2021/08/27 08:26:05;;;;;;;2.17;1.87;;;;;;;18.95;80.57;99407.32;1688639;85;21071;-71
2021/08/27 08:28:32;;;;;;;2.40;2.20;;;;;;;19.06;80.44;99404.59;1688519;85;21000;-70
2021/08/27 08:30:58;;;;;;;2.58;2.35;;;;;;;19.15;80.44;99413.61;1688630;85;21104;-70
2021/08/27 08:33:24;;;;;;;2.25;2.05;;;;;;;19.18;79.66;99418.42;1689461;84;21091;-70
2021/08/27 08:35:51;;;;;;;2.10;1.92;;;;;;;19.14;78.39;99409.27;1689585;85;20987;-70
2021/08/27 08:38:18;;;;;;;2.52;2.30;;;;;;;19.10;77.17;99416.47;1699449;84;20964;-70
2021/08/27 08:40:45;;;;;;;3.95;2.10;;;;;;;19.04;77.14;99416.93;1675900;84;21060;-69
2021/08/27 08:43:13;;;;;;;2.33;2.12;;;;;;;18.98;77.38;99416.81;1672390;85;21023;-68
2021/08/27 08:45:46;;;;;;;4.15;2.20;;;;;;;18.99;77.22;99416.48;1689970;85;21081;-70
2021/08/27 08:48:12;;;;;;;3.77;3.08;;;;;;;19.02;76.88;99415.06;1690272;84;21498;-69
2021/08/27 08:50:39;;;;;;;5.45;2.80;;;;;;;18.97;77.07;99417.36;1675940;84;21040;-73
2021/08/27 08:53:05;;;;;;;2.70;2.10;;;;;;;19.01;77.55;99419.70;1697506;84;21000;-71
2021/08/27 08:55:31;;;;;;;3.10;2.27;;;;;;;19.12;77.72;99420.26;1689427;85;21056;-68
2021/08/27 08:57:58;;;;;;;4.90;2.83;;;;;;;19.25;77.63;99421.27;1689853;83;21017;-69
2021/08/27 09:00:24;;;;;;;8.38;5.17;;;;;;;19.34;76.21;99425.66;1689813;83;21069;-69
2021/08/27 09:02:51;;;;;;;3.55;3.20;;;;;;;19.38;75.79;99418.44;1684176;84;21037;-69
2021/08/27 09:05:17;;;;;;;4.05;2.80;;;;;;;19.49;74.56;99428.00;1687902;85;21061;-70
2021/08/27 09:07:44;;;;;;;3.98;3.65;;;;;;;19.49;74.56;99428.00;1688828;84;21013;-69
2021/08/27 09:10:19;;;;;;;3.05;2.75;;;;;;;19.63;74.28;99423.80;1690032;85;21099;-70
2021/08/27 09:12:49;;;;;;;3.35;2.25;;;;;;;19.63;74.28;99423.80;1664935;84;21551;-70
2021/08/27 09:15:20;;;;;;;3.30;3.02;;;;;;;19.70;73.44;99430.17;1688032;85;21021;-69
2021/08/27 09:17:49;;;;;;;3.15;2.83;;;;;;;19.72;73.56;99434.73;1688776;85;21097;-69
2021/08/27 09:20:21;;;;;;;2.40;2.20;;;;;;;19.74;73.65;99442.86;1671064;85;21036;-70
2021/08/27 09:22:57;;;;;;;2.42;2.22;;;;;;;19.80;72.67;99436.14;1645705;85;21086;-71
2021/08/27 09:25:27;;;;;;;4.87;2.90;;;;;;;19.83;71.72;99433.33;1688295;85;21017;-70
2021/08/27 09:28:09;;;;;;;3.52;3.22;;;;;;;19.84;71.32;99436.30;1688489;85;21538;-71
2021/08/27 09:30:40;;;;;;;3.02;2.17;;;;;;;19.86;71.09;99430.76;1689219;84;21489;-73
2021/08/27 09:33:08;;;;;;;2.40;2.20;;;;;;;19.91;69.95;99433.90;1689442;83;21075;-69
2021/08/27 09:35:35;;;;;;;2.33;2.12;;;;;;;19.97;68.97;99440.27;1689638;83;20985;-68
2021/08/27 09:38:01;;;;;;;3.12;2.37;;;;;;;20.05;68.46;99436.53;1688401;85;21518;-69
2021/08/27 09:40:30;;;;;;;2.67;2.20;;;;;;;20.18;68.35;99436.38;1689459;85;20951;-70
2021/08/27 09:42:58;;;;;;;1.87;1.77;;;;;;;20.25;67.08;99431.80;1689535;85;21081;-68
2021/08/27 09:45:44;;;;;;;2.20;1.45;;;;;;;20.31;66.82;99442.28;1666704;85;21075;-70
2021/08/27 09:48:13;;;;;;;2.83;2.62;;;;;;;20.39;66.75;99441.48;1644637;86;21757;-72
2021/08/27 09:50:43;;;;;;;2.42;2.02;;;;;;;20.44;66.71;99444.61;1651248;86;20992;-72
2021/08/27 09:53:12;;;;;;;3.00;2.72;;;;;;;20.38;65.80;99441.23;1655731;85;21569;-74
2021/08/27 09:55:55;;;;;;;2.25;2.08;;;;;;;20.35;65.54;99443.25;1685283;84;21530;-70
2021/08/27 09:58:21;;;;;;;5.22;3.72;;;;;;;20.37;64.91;99436.11;1672549;85;21068;-69
2021/08/27 10:01:07;;;;;;;2.62;2.42;;;;;;;20.38;64.91;99439.87;1666508;84;21226;-70
2021/08/27 10:03:34;;;;;;;2.15;1.98;;;;;;;20.46;65.25;99434.18;1659828;85;20940;-69
2021/08/27 10:06:03;;;;;;;2.40;2.20;;;;;;;20.53;63.35;99438.59;1674233;85;21535;-69
2021/08/27 10:08:32;;;;;;;2.75;2.55;;;;;;;20.54;63.72;99437.47;1673859;85;21007;-69
2021/08/27 10:11:17;;;;;;;2.42;2.22;;;;;;;20.57;64.24;99446.41;1673591;85;21064;-71
2021/08/27 10:13:44;;;;;;;2.55;2.33;;;;;;;20.57;63.76;99434.11;1668481;86;21144;-69
2021/08/27 10:16:12;;;;;;;3.17;2.87;;;;;;;20.57;63.51;99446.41;1667998;86;20972;-70
2021/08/27 10:18:38;;;;;;;5.05;2.30;;;;;;;20.60;63.26;99440.84;1661974;85;21003;-69
2021/08/27 10:21:07;;;;;;;2.90;2.70;;;;;;;20.68;63.40;99437.30;1673123;85;21051;-69
2021/08/27 10:23:34;;;;;;;3.45;2.12;;;;;;;20.74;63.13;99449.12;1673472;84;21020;-69
2021/08/27 10:26:13;;;;;;;2.55;2.42;;;;;;;20.82;62.57;99446.13;1673564;83;21100;-66
2021/08/27 10:28:39;;;;;;;3.37;2.60;;;;;;;20.82;62.64;99449.67;1670696;85;21500;-68
2021/08/27 10:31:06;;;;;;;2.85;2.65;;;;;;;20.76;62.58;99446.88;1658332;85;20988;-68
2021/08/27 10:33:44;;;;;;;2.90;2.70;;;;;;;20.71;62.83;99447.61;1646108;86;21274;-69
2021/08/27 10:36:21;;;;;;;3.10;2.90;;;;;;;20.68;62.58;99446.86;1658726;85;21608;-68
2021/08/27 10:38:54;;;;;;;3.05;2.85;;;;;;;20.63;62.53;99442.92;1643662;85;21915;-70
2021/08/27 10:41:37;;;;;;;3.25;2.98;;;;;;;20.60;62.99;99441.66;1649250;85;21032;-69
2021/08/27 10:44:07;;;;;;;4.70;3.00;;;;;;;20.61;63.30;99439.17;1672176;85;21052;-68
2021/08/27 10:46:52;;;;;;;3.10;2.87;;;;;;;20.65;62.99;99439.32;1671665;85;21668;-71
2021/08/27 10:49:21;;;;;;;3.90;3.60;;;;;;;20.63;63.44;99434.73;1671586;84;21009;-69
2021/08/27 10:51:50;;;;;;;4.62;3.05;;;;;;;20.64;62.53;99437.14;1669462;85;21552;-71
2021/08/27 10:54:18;;;;;;;3.98;3.67;;;;;;;20.68;62.51;99432.64;1673494;85;21523;-67
2021/08/27 10:56:51;;;;;;;3.70;3.37;;;;;;;20.72;62.52;99436.33;1673410;85;21033;-68
2021/08/27 10:59:22;;;;;;;4.53;3.42;;;;;;;20.75;62.30;99439.00;1688453;84;21573;-69
2021/08/27 11:02:01;;;;;;;4.25;3.85;;;;;;;20.78;62.03;99443.80;1689791;85;21057;-68
2021/08/27 11:04:30;;;;;;;3.98;3.62;;;;;;;20.84;61.77;99426.12;1688470;85;21967;-67
2021/08/27 11:07:04;;;;;;;4.45;4.05;;;;;;;20.97;62.00;99425.12;1688472;85;20957;-66
2021/08/27 11:09:36;;;;;;;3.45;3.15;;;;;;;21.06;60.74;99422.36;1687881;85;20961;-67
2021/08/27 11:12:24;;;;;;;3.72;3.42;;;;;;;21.15;60.92;99416.36;1689475;84;21015;-69
2021/08/27 11:14:54;;;;;;;3.92;3.50;;;;;;;21.25;59.98;99424.19;1689761;84;20956;-71
2021/08/27 11:17:21;;;;;;;3.52;3.33;;;;;;;21.35;59.93;99424.40;1664648;85;21863;-70
2021/08/27 11:19:59;;;;;;;4.10;3.08;;;;;;;21.40;59.72;99418.75;1689708;85;21013;-72
2021/08/27 11:22:29;;;;;;;3.25;3.05;;;;;;;21.47;59.78;99408.92;1689380;85;21565;-66
2021/08/27 11:25:11;;;;;;;3.90;3.60;;;;;;;21.53;59.42;99400.77;1689819;84;21060;-72
2021/08/27 11:27:38;;;;;;;3.52;3.22;;;;;;;21.54;59.18;99398.80;1690366;84;21020;-76
2021/08/27 11:30:31;;;;;;;3.92;3.62;;;;;;;21.60;58.98;99402.97;1689840;84;21151;-71
2021/08/27 11:32:58;;;;;;;4.00;3.70;;;;;;;21.62;58.42;99405.63;1671375;84;20968;-72
2021/08/27 11:35:25;;;;;;;6.37;3.90;;;;;;;21.71;59.08;99415.97;1689970;85;21035;-69
2021/08/27 11:38:07;;;;;;;4.28;3.87;;;;;;;21.73;58.17;99419.16;1690168;84;21050;-68
2021/08/27 11:40:36;;;;;;;4.05;3.75;;;;;;;21.80;58.82;99419.22;1690047;85;20900;-67